sensor_id;sensor_type;location;lat;lon;timestamp;pressure;altitude;pressure_sealevel;temperature;humidity
40992;BME280;29633;49.168;9.848;2023-03-20T00:00:06;97033.44;;;14.97;60.22
40992;BME280;29633;49.168;9.848;2023-03-20T00:02:35;97025.75;;;14.96;60.03
40992;BME280;29633;49.168;9.848;2023-03-20T00:05:17;97028.47;;;14.94;60.18
40992;BME280;29633;49.168;9.848;2023-03-20T00:07:44;97030.44;;;14.92;60.14
40992;BME280;29633;49.168;9.848;2023-03-20T00:10:10;97029.91;;;14.89;60.15
40992;BME280;29633;49.168;9.848;2023-03-20T00:12:36;97030.19;;;14.86;60.18
40992;BME280;29633;49.168;9.848;2023-03-20T00:15:03;97022.78;;;14.81;60.11
40992;BME280;29633;49.168;9.848;2023-03-20T00:17:29;97023.06;;;14.78;60.12
40992;BME280;29633;49.168;9.848;2023-03-20T00:19:55;97019.94;;;14.74;60.06
40992;BME280;29633;49.168;9.848;2023-03-20T00:22:21;97015.66;;;14.73;60.08
40992;BME280;29633;49.168;9.848;2023-03-20T00:24:47;97025.56;;;14.70;60.08
40992;BME280;29633;49.168;9.848;2023-03-20T00:27:14;97020.63;;;14.67;60.05
40992;BME280;29633;49.168;9.848;2023-03-20T00:29:40;97030.53;;;14.63;59.93
40992;BME280;29633;49.168;9.848;2023-03-20T00:32:10;97037.03;;;14.50;60.21
40992;BME280;29633;49.168;9.848;2023-03-20T00:34:36;97031.69;;;14.42;60.16
40992;BME280;29633;49.168;9.848;2023-03-20T00:37:02;97034.69;;;14.37;59.94
40992;BME280;29633;49.168;9.848;2023-03-20T00:39:28;97035.00;;;14.34;60.13
40992;BME280;29633;49.168;9.848;2023-03-20T00:41:59;97038.44;;;14.35;60.14
40992;BME280;29633;49.168;9.848;2023-03-20T00:44:31;97041.13;;;14.33;59.71
40992;BME280;29633;49.168;9.848;2023-03-20T00:47:03;97046.09;;;14.26;59.92
40992;BME280;29633;49.168;9.848;2023-03-20T00:49:32;97046.78;;;14.19;60.04
40992;BME280;29633;49.168;9.848;2023-03-20T00:51:59;97042.78;;;14.15;60.01
40992;BME280;29633;49.168;9.848;2023-03-20T00:54:26;97039.34;;;14.14;60.03
40992;BME280;29633;49.168;9.848;2023-03-20T00:56:56;97035.81;;;14.15;60.10
40992;BME280;29633;49.168;9.848;2023-03-20T00:59:27;97041.56;;;14.09;60.26
40992;BME280;29633;49.168;9.848;2023-03-20T01:01:53;97042.41;;;14.10;60.22
40992;BME280;29633;49.168;9.848;2023-03-20T01:04:19;97044.03;;;14.11;60.16
40992;BME280;29633;49.168;9.848;2023-03-20T01:06:45;97037.75;;;14.13;60.08
40992;BME280;29633;49.168;9.848;2023-03-20T01:09:11;97046.22;;;14.15;60.12
40992;BME280;29633;49.168;9.848;2023-03-20T01:11:37;97043.63;;;14.15;59.83
40992;BME280;29633;49.168;9.848;2023-03-20T01:14:05;97041.72;;;14.17;60.04
40992;BME280;29633;49.168;9.848;2023-03-20T01:16:34;97044.56;;;14.14;59.92
40992;BME280;29633;49.168;9.848;2023-03-20T01:19:00;97041.28;;;14.12;60.12
40992;BME280;29633;49.168;9.848;2023-03-20T01:21:26;97046.50;;;14.12;60.24
40992;BME280;29633;49.168;9.848;2023-03-20T01:23:51;97037.75;;;14.13;60.19
40992;BME280;29633;49.168;9.848;2023-03-20T01:28:45;97044.44;;;14.16;60.44
40992;BME280;29633;49.168;9.848;2023-03-20T01:31:13;97042.38;;;14.19;60.31
40992;BME280;29633;49.168;9.848;2023-03-20T01:33:39;97045.00;;;14.19;60.38
40992;BME280;29633;49.168;9.848;2023-03-20T01:36:05;97044.16;;;14.19;60.41
40992;BME280;29633;49.168;9.848;2023-03-20T01:38:31;97045.16;;;14.18;60.51
40992;BME280;29633;49.168;9.848;2023-03-20T01:43:33;97050.22;;;14.19;60.75
40992;BME280;29633;49.168;9.848;2023-03-20T01:48:35;97047.47;;;14.21;60.72
40992;BME280;29633;49.168;9.848;2023-03-20T01:51:02;97052.00;;;14.19;60.82
40992;BME280;29633;49.168;9.848;2023-03-20T01:53:27;97056.38;;;14.18;60.88
40992;BME280;29633;49.168;9.848;2023-03-20T01:55:55;97045.41;;;14.15;60.79
40992;BME280;29633;49.168;9.848;2023-03-20T01:58:27;97050.63;;;14.15;60.79
40992;BME280;29633;49.168;9.848;2023-03-20T02:00:54;97053.63;;;14.20;60.82
40992;BME280;29633;49.168;9.848;2023-03-20T02:03:20;97052.41;;;14.24;60.92
40992;BME280;29633;49.168;9.848;2023-03-20T02:05:46;97056.50;;;14.26;60.83
40992;BME280;29633;49.168;9.848;2023-03-20T02:08:20;97054.31;;;14.32;60.75
40992;BME280;29633;49.168;9.848;2023-03-20T02:10:46;97062.97;;;14.32;60.87
40992;BME280;29633;49.168;9.848;2023-03-20T02:13:14;97055.00;;;14.34;60.94
40992;BME280;29633;49.168;9.848;2023-03-20T02:15:57;97058.19;;;14.37;60.85
40992;BME280;29633;49.168;9.848;2023-03-20T02:18:23;97065.72;;;14.40;60.80
40992;BME280;29633;49.168;9.848;2023-03-20T02:21:19;97071.22;;;14.37;60.93
40992;BME280;29633;49.168;9.848;2023-03-20T02:29:47;97079.75;;;14.39;60.94
40992;BME280;29633;49.168;9.848;2023-03-20T02:35:43;97082.47;;;14.38;61.03
40992;BME280;29633;49.168;9.848;2023-03-20T02:54:48;97075.19;;;14.32;61.05
40992;BME280;29633;49.168;9.848;2023-03-20T02:57:21;97079.69;;;14.29;61.37
40992;BME280;29633;49.168;9.848;2023-03-20T02:59:58;97079.16;;;14.26;61.44
40992;BME280;29633;49.168;9.848;2023-03-20T03:02:34;97082.19;;;14.21;61.34
40992;BME280;29633;49.168;9.848;2023-03-20T03:05:04;97085.06;;;14.18;61.52
40992;BME280;29633;49.168;9.848;2023-03-20T03:07:32;97078.88;;;14.19;61.57
40992;BME280;29633;49.168;9.848;2023-03-20T03:10:17;97072.03;;;14.18;61.42
40992;BME280;29633;49.168;9.848;2023-03-20T03:12:45;97084.94;;;14.20;61.41
40992;BME280;29633;49.168;9.848;2023-03-20T03:15:23;97078.88;;;14.19;61.49
40992;BME280;29633;49.168;9.848;2023-03-20T03:17:51;97079.16;;;14.16;61.58
40992;BME280;29633;49.168;9.848;2023-03-20T03:20:26;97074.78;;;14.17;61.42
40992;BME280;29633;49.168;9.848;2023-03-20T03:22:53;97070.81;;;14.13;61.53
40992;BME280;29633;49.168;9.848;2023-03-20T03:25:21;97074.50;;;14.10;61.70
40992;BME280;29633;49.168;9.848;2023-03-20T03:27:53;97079.03;;;14.08;61.66
40992;BME280;29633;49.168;9.848;2023-03-20T03:30:26;97079.03;;;14.08;61.76
40992;BME280;29633;49.168;9.848;2023-03-20T03:35:30;97084.63;;;14.04;61.83
40992;BME280;29633;49.168;9.848;2023-03-20T03:38:22;97076.97;;;14.02;61.82
40992;BME280;29633;49.168;9.848;2023-03-20T03:46:15;97084.53;;;14.05;61.67
40992;BME280;29633;49.168;9.848;2023-03-20T03:48:50;97083.28;;;14.09;61.77
40992;BME280;29633;49.168;9.848;2023-03-20T03:51:20;97079.84;;;14.09;61.69
40992;BME280;29633;49.168;9.848;2023-03-20T03:54:21;97085.63;;;14.12;61.71
40992;BME280;29633;49.168;9.848;2023-03-20T03:56:49;97088.22;;;14.12;61.84
40992;BME280;29633;49.168;9.848;2023-03-20T03:59:36;97095.91;;;14.14;61.71
40992;BME280;29633;49.168;9.848;2023-03-20T04:02:03;97096.88;;;14.13;61.52
40992;BME280;29633;49.168;9.848;2023-03-20T04:04:31;97094.28;;;14.03;61.86
40992;BME280;29633;49.168;9.848;2023-03-20T04:07:00;97101.94;;;13.95;62.01
40992;BME280;29633;49.168;9.848;2023-03-20T04:09:26;97097.00;;;13.92;61.96
40992;BME280;29633;49.168;9.848;2023-03-20T04:11:52;97082.44;;;13.90;62.03
40992;BME280;29633;49.168;9.848;2023-03-20T04:14:18;97087.09;;;13.86;62.15
40992;BME280;29633;49.168;9.848;2023-03-20T04:16:43;97090.69;;;13.85;62.03
40992;BME280;29633;49.168;9.848;2023-03-20T04:19:09;97096.16;;;13.82;62.15
40992;BME280;29633;49.168;9.848;2023-03-20T04:21:35;97103.56;;;13.77;62.11
40992;BME280;29633;49.168;9.848;2023-03-20T04:24:01;97102.31;;;13.71;62.17
40992;BME280;29633;49.168;9.848;2023-03-20T04:26:26;97107.78;;;13.68;62.14
40992;BME280;29633;49.168;9.848;2023-03-20T04:28:52;97110.13;;;13.71;62.08
40992;BME280;29633;49.168;9.848;2023-03-20T04:31:18;97116.16;;;13.72;62.18
40992;BME280;29633;49.168;9.848;2023-03-20T04:33:44;97110.13;;;13.71;62.21
40992;BME280;29633;49.168;9.848;2023-03-20T04:36:10;97115.75;;;13.76;61.99
40992;BME280;29633;49.168;9.848;2023-03-20T04:38:36;97104.38;;;13.77;62.06
40992;BME280;29633;49.168;9.848;2023-03-20T04:41:02;97110.44;;;13.78;61.86
40992;BME280;29633;49.168;9.848;2023-03-20T04:43:28;97116.31;;;13.80;62.04
40992;BME280;29633;49.168;9.848;2023-03-20T04:45:54;97102.63;;;13.78;62.24
40992;BME280;29633;49.168;9.848;2023-03-20T04:48:20;97100.81;;;13.78;62.12
40992;BME280;29633;49.168;9.848;2023-03-20T04:50:48;97104.38;;;13.77;62.15
40992;BME280;29633;49.168;9.848;2023-03-20T04:53:16;97104.25;;;13.79;62.04
40992;BME280;29633;49.168;9.848;2023-03-20T04:55:42;97100.81;;;13.78;62.24
40992;BME280;29633;49.168;9.848;2023-03-20T04:58:08;97100.00;;;13.78;62.07
40992;BME280;29633;49.168;9.848;2023-03-20T05:00:34;97101.63;;;13.69;62.10
40992;BME280;29633;49.168;9.848;2023-03-20T05:02:59;97099.28;;;13.66;62.19
40992;BME280;29633;49.168;9.848;2023-03-20T05:05:25;97102.84;;;13.65;62.00
40992;BME280;29633;49.168;9.848;2023-03-20T05:07:51;97099.97;;;13.68;62.13
40992;BME280;29633;49.168;9.848;2023-03-20T05:10:19;97103.28;;;13.70;62.23
40992;BME280;29633;49.168;9.848;2023-03-20T05:12:46;97103.69;;;13.66;62.33
40992;BME280;29633;49.168;9.848;2023-03-20T05:15:11;97110.94;;;13.62;62.30
40992;BME280;29633;49.168;9.848;2023-03-20T05:17:37;97112.84;;;13.60;62.32
40992;BME280;29633;49.168;9.848;2023-03-20T05:20:03;97116.16;;;13.62;62.20
40992;BME280;29633;49.168;9.848;2023-03-20T05:22:29;97121.34;;;13.62;62.18
40992;BME280;29633;49.168;9.848;2023-03-20T05:24:55;97116.16;;;13.62;62.29
40992;BME280;29633;49.168;9.848;2023-03-20T05:27:20;97123.25;;;13.60;62.42
40992;BME280;29633;49.168;9.848;2023-03-20T05:29:46;97128.47;;;13.60;62.48
40992;BME280;29633;49.168;9.848;2023-03-20T05:32:12;97124.34;;;13.58;62.52
40992;BME280;29633;49.168;9.848;2023-03-20T05:34:40;97129.44;;;13.59;62.41
40992;BME280;29633;49.168;9.848;2023-03-20T05:37:06;97130.38;;;13.58;62.46
40992;BME280;29633;49.168;9.848;2023-03-20T05:39:31;97134.78;;;13.58;62.37
40992;BME280;29633;49.168;9.848;2023-03-20T05:41:57;97135.47;;;13.60;62.35
40992;BME280;29633;49.168;9.848;2023-03-20T05:44:25;97137.94;;;13.61;62.30
40992;BME280;29633;49.168;9.848;2023-03-20T05:46:50;97137.81;;;13.63;62.26
40992;BME280;29633;49.168;9.848;2023-03-20T05:49:16;97136.72;;;13.65;62.36
40992;BME280;29633;49.168;9.848;2023-03-20T05:51:41;97145.22;;;13.67;62.55
40992;BME280;29633;49.168;9.848;2023-03-20T05:54:07;97135.75;;;13.66;62.73
40992;BME280;29633;49.168;9.848;2023-03-20T05:56:33;97140.00;;;13.67;62.38
40992;BME280;29633;49.168;9.848;2023-03-20T05:58:58;97135.63;;;13.68;62.62
40992;BME280;29633;49.168;9.848;2023-03-20T06:01:24;97141.38;;;13.71;62.50
40992;BME280;29633;49.168;9.848;2023-03-20T06:03:50;97137.00;;;13.72;62.46
40992;BME280;29633;49.168;9.848;2023-03-20T06:06:16;97148.38;;;13.71;62.59
40992;BME280;29633;49.168;9.848;2023-03-20T06:08:42;97147.69;;;13.69;62.52
40992;BME280;29633;49.168;9.848;2023-03-20T06:11:08;97148.53;;;13.69;62.47
40992;BME280;29633;49.168;9.848;2023-03-20T06:13:34;97156.06;;;13.72;62.48
40992;BME280;29633;49.168;9.848;2023-03-20T06:16:00;97151.56;;;13.74;62.47
40992;BME280;29633;49.168;9.848;2023-03-20T06:18:26;97161.00;;;13.75;62.49
40992;BME280;29633;49.168;9.848;2023-03-20T06:20:53;97164.16;;;13.69;62.60
40992;BME280;29633;49.168;9.848;2023-03-20T06:23:19;97164.28;;;13.68;62.73
40992;BME280;29633;49.168;9.848;2023-03-20T06:25:45;97156.59;;;13.66;62.75
40992;BME280;29633;49.168;9.848;2023-03-20T06:28:10;97156.88;;;13.63;62.75
40992;BME280;29633;49.168;9.848;2023-03-20T06:30:36;97158.50;;;13.64;62.90
40992;BME280;29633;49.168;9.848;2023-03-20T06:33:02;97157.44;;;13.67;62.91
40992;BME280;29633;49.168;9.848;2023-03-20T06:35:29;97162.22;;;13.71;62.54
40992;BME280;29633;49.168;9.848;2023-03-20T06:37:56;97156.78;;;13.74;62.68
40992;BME280;29633;49.168;9.848;2023-03-20T06:40:22;97162.00;;;13.74;62.64
40992;BME280;29633;49.168;9.848;2023-03-20T06:42:48;97154.03;;;13.76;62.60
40992;BME280;29633;49.168;9.848;2023-03-20T06:45:14;97156.22;;;13.80;62.34
40992;BME280;29633;49.168;9.848;2023-03-20T06:47:40;97151.28;;;13.77;62.70
40992;BME280;29633;49.168;9.848;2023-03-20T06:50:06;97159.22;;;13.76;62.54
40992;BME280;29633;49.168;9.848;2023-03-20T06:52:32;97157.00;;;13.71;62.80
40992;BME280;29633;49.168;9.848;2023-03-20T06:54:58;97161.09;;;13.64;62.77
40992;BME280;29633;49.168;9.848;2023-03-20T06:57:23;97161.66;;;13.58;62.95
40992;BME280;29633;49.168;9.848;2023-03-20T06:59:49;97161.75;;;13.57;62.93
40992;BME280;29633;49.168;9.848;2023-03-20T07:02:15;97165.09;;;13.59;62.97
40992;BME280;29633;49.168;9.848;2023-03-20T07:04:41;97162.31;;;13.60;62.99
40992;BME280;29633;49.168;9.848;2023-03-20T07:07:06;97165.09;;;13.59;63.10
40992;BME280;29633;49.168;9.848;2023-03-20T07:09:32;97166.59;;;13.61;62.79
40992;BME280;29633;49.168;9.848;2023-03-20T07:11:58;97157.38;;;13.57;63.21
40992;BME280;29633;49.168;9.848;2023-03-20T07:14:24;97157.53;;;13.56;63.05
40992;BME280;29633;49.168;9.848;2023-03-20T07:16:50;97157.94;;;13.51;63.04
40992;BME280;29633;49.168;9.848;2023-03-20T07:19:16;97152.72;;;13.51;63.26
40992;BME280;29633;49.168;9.848;2023-03-20T07:21:43;97165.75;;;13.51;63.32
40992;BME280;29633;49.168;9.848;2023-03-20T07:24:09;97167.63;;;13.49;63.38
40992;BME280;29633;49.168;9.848;2023-03-20T07:26:34;97173.09;;;13.46;63.35
40992;BME280;29633;49.168;9.848;2023-03-20T07:29:00;97182.56;;;13.47;63.36
40992;BME280;29633;49.168;9.848;2023-03-20T07:31:27;97179.97;;;13.47;63.85
40992;BME280;29633;49.168;9.848;2023-03-20T07:33:59;97185.88;;;13.49;63.49
40992;BME280;29633;49.168;9.848;2023-03-20T07:36:24;97192.72;;;13.50;63.41
40992;BME280;29633;49.168;9.848;2023-03-20T07:38:50;97189.06;;;13.53;63.41
40992;BME280;29633;49.168;9.848;2023-03-20T07:41:15;97188.66;;;13.57;63.49
40992;BME280;29633;49.168;9.848;2023-03-20T07:43:41;97189.09;;;13.62;63.33
40992;BME280;29633;49.168;9.848;2023-03-20T07:46:07;97190.59;;;13.65;63.56
40992;BME280;29633;49.168;9.848;2023-03-20T07:48:34;97180.06;;;13.66;63.33
40992;BME280;29633;49.168;9.848;2023-03-20T07:51:00;97181.44;;;13.70;63.58
40992;BME280;29633;49.168;9.848;2023-03-20T07:53:26;97172.25;;;13.76;63.49
40992;BME280;29633;49.168;9.848;2023-03-20T07:55:52;97172.53;;;13.82;63.22
40992;BME280;29633;49.168;9.848;2023-03-20T07:58:18;97168.44;;;13.90;63.41
40992;BME280;29633;49.168;9.848;2023-03-20T08:00:44;97167.22;;;13.94;63.32
40992;BME280;29633;49.168;9.848;2023-03-20T08:03:09;97172.31;;;13.95;63.20
40992;BME280;29633;49.168;9.848;2023-03-20T08:05:35;97164.22;;;13.98;63.35
40992;BME280;29633;49.168;9.848;2023-03-20T08:08:02;97179.03;;;13.98;63.36
40992;BME280;29633;49.168;9.848;2023-03-20T08:10:28;97175.31;;;14.00;63.28
40992;BME280;29633;49.168;9.848;2023-03-20T08:12:53;97170.25;;;13.99;63.41
40992;BME280;29633;49.168;9.848;2023-03-20T08:15:19;97176.56;;;13.96;63.39
40992;BME280;29633;49.168;9.848;2023-03-20T08:17:45;97186.19;;;13.96;63.64
40992;BME280;29633;49.168;9.848;2023-03-20T08:20:12;97187.81;;;13.97;63.45
40992;BME280;29633;49.168;9.848;2023-03-20T08:22:38;97184.41;;;13.96;63.62
40992;BME280;29633;49.168;9.848;2023-03-20T08:25:04;97187.00;;;13.96;63.56
40992;BME280;29633;49.168;9.848;2023-03-20T08:27:30;97190.56;;;13.95;63.73
40992;BME280;29633;49.168;9.848;2023-03-20T08:29:56;97193.00;;;13.97;63.57
40992;BME280;29633;49.168;9.848;2023-03-20T08:32:21;97200.16;;;13.95;63.82
40992;BME280;29633;49.168;9.848;2023-03-20T08:34:47;97189.47;;;13.98;63.64
40992;BME280;29633;49.168;9.848;2023-03-20T08:37:13;97196.06;;;14.02;63.59
40992;BME280;29633;49.168;9.848;2023-03-20T08:39:39;97196.63;;;14.05;63.72
40992;BME280;29633;49.168;9.848;2023-03-20T08:42:05;97194.44;;;14.10;63.54
40992;BME280;29633;49.168;9.848;2023-03-20T08:44:31;97197.59;;;14.14;63.69
40992;BME280;29633;49.168;9.848;2023-03-20T08:46:57;97199.66;;;14.20;63.54
40992;BME280;29633;49.168;9.848;2023-03-20T08:49:23;97199.09;;;14.26;63.53
40992;BME280;29633;49.168;9.848;2023-03-20T08:51:49;97201.19;;;14.32;63.44
40992;BME280;29633;49.168;9.848;2023-03-20T08:54:15;97199.97;;;14.36;63.43
40992;BME280;29633;49.168;9.848;2023-03-20T08:56:43;97202.44;;;14.38;63.50
40992;BME280;29633;49.168;9.848;2023-03-20T08:59:10;97201.22;;;14.42;63.47
40992;BME280;29633;49.168;9.848;2023-03-20T09:01:36;97202.59;;;14.46;63.48
40992;BME280;29633;49.168;9.848;2023-03-20T09:04:02;97207.53;;;14.49;63.40
40992;BME280;29633;49.168;9.848;2023-03-20T09:06:28;97199.31;;;14.53;63.29
40992;BME280;29633;49.168;9.848;2023-03-20T09:08:54;97208.25;;;14.60;63.38
40992;BME280;29633;49.168;9.848;2023-03-20T09:11:22;97202.47;;;14.66;63.28
40992;BME280;29633;49.168;9.848;2023-03-20T09:13:47;97203.28;;;14.67;63.36
40992;BME280;29633;49.168;9.848;2023-03-20T09:16:14;97196.28;;;14.67;63.39
40992;BME280;29633;49.168;9.848;2023-03-20T09:18:39;97203.72;;;14.72;63.43
40992;BME280;29633;49.168;9.848;2023-03-20T09:21:05;97204.94;;;14.77;63.50
40992;BME280;29633;49.168;9.848;2023-03-20T09:23:31;97204.38;;;14.84;63.49
40992;BME280;29633;49.168;9.848;2023-03-20T09:25:57;97202.19;;;14.89;63.44
40992;BME280;29633;49.168;9.848;2023-03-20T09:28:22;97198.59;;;14.99;63.34
40992;BME280;29633;49.168;9.848;2023-03-20T09:30:48;97210.94;;;15.07;63.38
40992;BME280;29633;49.168;9.848;2023-03-20T09:33:14;97213.28;;;15.10;63.32
40992;BME280;29633;49.168;9.848;2023-03-20T09:35:39;97207.06;;;15.20;63.26
40992;BME280;29633;49.168;9.848;2023-03-20T09:38:06;97204.56;;;15.28;63.27
40992;BME280;29633;49.168;9.848;2023-03-20T09:40:55;97210.59;;;15.39;63.12
40992;BME280;29633;49.168;9.848;2023-03-20T09:54:45;97204.38;;;15.59;63.22
40992;BME280;29633;49.168;9.848;2023-03-20T09:57:27;97203.56;;;15.58;63.25
40992;BME280;29633;49.168;9.848;2023-03-20T09:59:58;97203.78;;;15.65;63.33
40992;BME280;29633;49.168;9.848;2023-03-20T10:05:00;97199.75;;;15.70;63.18
40992;BME280;29633;49.168;9.848;2023-03-20T10:07:27;97207.78;;;15.69;63.35
40992;BME280;29633;49.168;9.848;2023-03-20T10:09:53;97206.34;;;15.74;63.27
40992;BME280;29633;49.168;9.848;2023-03-20T10:12:28;97199.75;;;15.80;63.12
40992;BME280;29633;49.168;9.848;2023-03-20T10:15:25;97198.63;;;15.83;63.28
40992;BME280;29633;49.168;9.848;2023-03-20T10:18:08;97207.13;;;15.85;63.56
40992;BME280;29633;49.168;9.848;2023-03-20T10:23:40;97202.16;;;15.91;63.31
40992;BME280;29633;49.168;9.848;2023-03-20T10:26:10;97198.97;;;15.97;63.33
40992;BME280;29633;49.168;9.848;2023-03-20T10:31:37;97203.69;;;16.11;63.03
40992;BME280;29633;49.168;9.848;2023-03-20T10:39:51;97208.84;;;16.21;63.17
40992;BME280;29633;49.168;9.848;2023-03-20T10:42:21;97204.75;;;16.18;63.07
40992;BME280;29633;49.168;9.848;2023-03-20T10:44:55;97217.91;;;16.09;63.25
40992;BME280;29633;49.168;9.848;2023-03-20T10:47:22;97215.06;;;15.93;63.36
40992;BME280;29633;49.168;9.848;2023-03-20T10:49:55;97209.59;;;15.86;63.49
40992;BME280;29633;49.168;9.848;2023-03-20T10:52:29;97216.09;;;15.82;63.50
40992;BME280;29633;49.168;9.848;2023-03-20T10:55:02;97218.03;;;15.80;63.57
40992;BME280;29633;49.168;9.848;2023-03-20T10:57:31;97213.78;;;15.79;63.60
40992;BME280;29633;49.168;9.848;2023-03-20T10:59:58;97212.13;;;15.78;63.62
40992;BME280;29633;49.168;9.848;2023-03-20T11:02:29;97217.06;;;15.81;63.52
40992;BME280;29633;49.168;9.848;2023-03-20T11:04:55;97210.97;;;15.90;63.38
40992;BME280;29633;49.168;9.848;2023-03-20T11:07:26;97200.75;;;15.97;63.23
40992;BME280;29633;49.168;9.848;2023-03-20T11:12:38;97206.22;;;16.03;63.28
40992;BME280;29633;49.168;9.848;2023-03-20T11:15:31;97200.97;;;16.03;63.22
40992;BME280;29633;49.168;9.848;2023-03-20T11:20:24;97201.38;;;16.08;62.93
40992;BME280;29633;49.168;9.848;2023-03-20T11:22:57;97202.03;;;16.10;63.18
40992;BME280;29633;49.168;9.848;2023-03-20T11:25:28;97207.50;;;16.17;62.91
40992;BME280;29633;49.168;9.848;2023-03-20T11:27:55;97206.53;;;16.18;63.03
40992;BME280;29633;49.168;9.848;2023-03-20T11:30:22;97199.09;;;16.23;63.02
40992;BME280;29633;49.168;9.848;2023-03-20T11:32:49;97207.28;;;16.28;63.12
40992;BME280;29633;49.168;9.848;2023-03-20T11:37:52;97206.56;;;16.36;62.99
40992;BME280;29633;49.168;9.848;2023-03-20T11:40:22;97199.09;;;16.41;63.05
40992;BME280;29633;49.168;9.848;2023-03-20T11:42:56;97200.22;;;16.38;62.84
40992;BME280;29633;49.168;9.848;2023-03-20T11:45:35;97196.63;;;16.39;63.09
40992;BME280;29633;49.168;9.848;2023-03-20T11:48:02;97192.00;;;16.51;62.89
40992;BME280;29633;49.168;9.848;2023-03-20T11:50:41;97185.16;;;16.67;62.97
40992;BME280;29633;49.168;9.848;2023-03-20T11:53:22;97195.44;;;16.87;62.82
40992;BME280;29633;49.168;9.848;2023-03-20T11:58:32;97189.25;;;17.13;62.85
40992;BME280;29633;49.168;9.848;2023-03-20T12:01:00;97187.81;;;17.19;62.74
40992;BME280;29633;49.168;9.848;2023-03-20T12:03:49;97177.19;;;17.20;62.92
40992;BME280;29633;49.168;9.848;2023-03-20T12:06:35;97187.34;;;17.23;63.04
40992;BME280;29633;49.168;9.848;2023-03-20T12:14:26;97173.94;;;17.27;63.02
40992;BME280;29633;49.168;9.848;2023-03-20T12:17:00;97178.03;;;17.29;62.81
40992;BME280;29633;49.168;9.848;2023-03-20T12:19:28;97181.81;;;17.27;63.16
40992;BME280;29633;49.168;9.848;2023-03-20T12:22:20;97180.63;;;17.21;63.08
40992;BME280;29633;49.168;9.848;2023-03-20T12:25:12;97178.31;;;17.18;62.96
40992;BME280;29633;49.168;9.848;2023-03-20T12:27:44;97174.06;;;17.17;62.97
40992;BME280;29633;49.168;9.848;2023-03-20T12:36:21;97172.00;;;17.03;62.92
40992;BME280;29633;49.168;9.848;2023-03-20T12:38:48;97165.63;;;17.05;62.97
40992;BME280;29633;49.168;9.848;2023-03-20T12:46:49;97165.72;;;16.96;62.84
40992;BME280;29633;49.168;9.848;2023-03-20T12:52:33;97165.34;;;16.91;63.04
40992;BME280;29633;49.168;9.848;2023-03-20T12:55:23;97169.19;;;16.96;62.77
40992;BME280;29633;49.168;9.848;2023-03-20T12:58:03;97164.47;;;17.08;62.66
40992;BME280;29633;49.168;9.848;2023-03-20T13:13:53;97155.00;;;17.66;62.36
40992;BME280;29633;49.168;9.848;2023-03-20T13:19:21;97144.34;;;17.60;62.26
40992;BME280;29633;49.168;9.848;2023-03-20T13:24:41;97140.56;;;17.62;62.08
40992;BME280;29633;49.168;9.848;2023-03-20T13:27:21;97147.78;;;17.60;62.23
40992;BME280;29633;49.168;9.848;2023-03-20T13:32:45;97132.06;;;17.60;62.30
40992;BME280;29633;49.168;9.848;2023-03-20T13:38:42;97132.41;;;17.74;61.94
40992;BME280;29633;49.168;9.848;2023-03-20T13:41:09;97124.44;;;17.91;61.99
40992;BME280;29633;49.168;9.848;2023-03-20T13:46:15;97124.34;;;18.17;61.85
40992;BME280;29633;49.168;9.848;2023-03-20T13:48:43;97110.88;;;18.20;61.85
40992;BME280;29633;49.168;9.848;2023-03-20T13:56:55;97112.22;;;18.40;62.35
40992;BME280;29633;49.168;9.848;2023-03-20T14:05:24;97109.78;;;18.63;62.19
40992;BME280;29633;49.168;9.848;2023-03-20T14:07:56;97104.22;;;18.66;62.22
40992;BME280;29633;49.168;9.848;2023-03-20T14:12:50;97097.63;;;18.86;61.70
40992;BME280;29633;49.168;9.848;2023-03-20T14:15:18;97091.06;;;18.90;61.62
40992;BME280;29633;49.168;9.848;2023-03-20T14:17:49;97092.84;;;18.90;61.54
40992;BME280;29633;49.168;9.848;2023-03-20T14:20:36;97092.72;;;18.75;61.67
40992;BME280;29633;49.168;9.848;2023-03-20T14:23:03;97095.34;;;18.67;61.96
40992;BME280;29633;49.168;9.848;2023-03-20T14:25:39;97087.97;;;18.62;61.42
40992;BME280;29633;49.168;9.848;2023-03-20T14:30:43;97087.78;;;18.64;61.45
40992;BME280;29633;49.168;9.848;2023-03-20T14:36:11;97094.84;;;18.63;61.34
40992;BME280;29633;49.168;9.848;2023-03-20T14:38:52;97086.81;;;18.65;61.01
40992;BME280;29633;49.168;9.848;2023-03-20T14:41:56;97085.66;;;18.67;61.39
40992;BME280;29633;49.168;9.848;2023-03-20T14:49:50;97086.97;;;18.63;61.10
40992;BME280;29633;49.168;9.848;2023-03-20T14:58:02;97080.56;;;18.17;61.20
40992;BME280;29633;49.168;9.848;2023-03-20T15:00:32;97087.91;;;18.06;61.11
40992;BME280;29633;49.168;9.848;2023-03-20T15:03:15;97082.16;;;17.94;61.48
40992;BME280;29633;49.168;9.848;2023-03-20T15:05:41;97082.28;;;17.85;61.50
40992;BME280;29633;49.168;9.848;2023-03-20T15:08:22;97073.09;;;17.73;61.26
40992;BME280;29633;49.168;9.848;2023-03-20T15:10:50;97074.69;;;17.65;61.44
40992;BME280;29633;49.168;9.848;2023-03-20T15:13:17;97081.59;;;17.66;61.02
40992;BME280;29633;49.168;9.848;2023-03-20T15:18:22;97076.53;;;17.65;61.01
40992;BME280;29633;49.168;9.848;2023-03-20T15:20:48;97067.97;;;17.63;60.99
40992;BME280;29633;49.168;9.848;2023-03-20T15:23:16;97064.72;;;17.61;61.12
40992;BME280;29633;49.168;9.848;2023-03-20T15:25:43;97075.66;;;17.56;61.27
40992;BME280;29633;49.168;9.848;2023-03-20T15:28:14;97066.66;;;17.59;60.83
40992;BME280;29633;49.168;9.848;2023-03-20T15:30:40;97064.22;;;17.57;60.93
40992;BME280;29633;49.168;9.848;2023-03-20T15:33:19;97069.06;;;17.52;60.82
40992;BME280;29633;49.168;9.848;2023-03-20T15:35:48;97068.25;;;17.52;60.73
40992;BME280;29633;49.168;9.848;2023-03-20T15:38:15;97062.00;;;17.45;60.80
40992;BME280;29633;49.168;9.848;2023-03-20T15:40:41;97057.41;;;17.39;60.96
40992;BME280;29633;49.168;9.848;2023-03-20T15:43:21;97062.28;;;17.34;61.04
40992;BME280;29633;49.168;9.848;2023-03-20T15:45:48;97061.78;;;17.30;60.76
40992;BME280;29633;49.168;9.848;2023-03-20T15:48:17;97062.91;;;17.28;60.73